Latest Coastal Weather Observations for Newcastle Nobbys

IDN60701

Issued at 4:31 am EST Tuesday 28 June 2022 (issued every 10 minutes, with the page automatically refreshed every 10 minutes)

About coastal observations | Map of coastal stations | Coastal observations for NSW | Marine services | Other Formats
Station Details ID: 061055 Name: NEWCASTLE NOBBYS SIGNAL STATION AWS Lat: -32.92 Lon: 151.80 Height: 33.0 m
Data from the previous 72 hours. | See also: Recent months at Newcastle Nobbys
Date/Time
EST
Wind Sea
Height
m
Swell Vis
km
Cloud Weather Temp
°C
Press
MSL
hPa
Rain since
9am
mm
Dir  Spd
kts
Gust
kts
Height
m
Period
s
Dir
28/04:30am SW 12 19 - - - - - - - 10.6 - 7.4
28/04:00am SW 12 22 - - - - - - - 10.7 - 7.4
28/03:30am SW 11 20 - - - - - - - 10.1 - 7.4
28/03:00am SW 9 16 - - - - - - Recent precip. 9.8 - 7.4
28/02:30am WSW 7 10 - - - - - - - 9.5 - 7.4
28/02:00am SW 6 11 - - - - - - - 9.8 - 7.0
28/01:30am SW 7 11 - - - - - - - 9.7 - 6.6
28/01:00am SW 9 15 - - - - - - - 9.4 - 6.0
28/12:30am SW 10 15 - - - - - - - 9.6 - 6.0
28/12:00am WSW 9 13 - - - - - - Recent precip. 9.9 - 5.6
 
Date/Time
EST
Wind Sea
Height
m
Swell Vis
km
Cloud Weather Temp
°C
Press
MSL
hPa
Rain since
9am
mm
Dir  Spd
kts
Gust
kts
Height
m
Period
s
Dir
27/11:30pm WSW 10 14 - - - - - - - 9.6 - 3.6
27/11:00pm WSW 11 16 - - - - - - - 9.7 - 2.6
27/10:30pm SW 10 15 - - - - - - - 10.4 - 1.8
27/10:00pm SW 12 19 - - - - - - - 11.1 - 1.0
27/09:30pm SW 13 19 - - - - - - - 11.2 - 1.0
27/09:00pm SW 14 27 - - - - - - - 11.7 - 1.0
27/08:53pm SW 15 27 - - - - - - - 11.8 - 1.0
27/08:30pm SW 13 25 - - - - - - - 11.4 - 1.0
27/08:00pm SSW 10 19 - - - - - - - 11.8 - 1.0
27/07:30pm SSW 23 36 - - - - - - - 12.7 - 0.8
27/07:05pm SSW 17 33 - - - - - - - 14.0 - 0.6
27/07:00pm SSW 17 25 - - - - - - - 13.8 - 0.6
27/06:30pm SSW 14 22 - - - - - - - 13.8 - 0.6
27/06:00pm SW 13 23 - - - - - - - 13.7 - 0.6
27/05:30pm SSW 16 26 - - - - - - - 14.4 - 0.6
27/05:00pm SSW 25 36 - - - - - - - 14.4 - 0.6
27/04:34pm SSW 22 33 - - - - - - - 14.9 - 0.6
27/04:30pm SSW 25 33 - - - - - - - 15.1 - 0.6
27/04:00pm S 27 37 - - - - - - - 15.0 - 0.6
27/03:45pm SSW 26 37 - - - - - - - 14.7 - 0.6
27/03:30pm SSW 25 34 - - - - - - - 14.8 - 0.6
27/03:00pm SSW 23 33 - - - - - - - 15.0 - 0.6
27/02:30pm SSW 21 31 - - - - - - - 14.6 - 0.6
27/02:28pm SSW 22 30 - - - - - - - 14.5 - 0.6
27/02:00pm S 23 29 - - - - - - - 13.4 - 0.6
27/01:32pm S 18 28 - - - - - - - 13.5 - 0.0
27/01:30pm S 20 28 - - - - - - - 13.5 - 0.0
27/01:00pm SSW 21 32 - - - - - - - 15.4 - 0.0
27/12:30pm SSW 15 25 - - - - - - - 15.6 - 0.0
27/12:29pm SSW 15 25 - - - - - - - 15.6 - 0.0
27/12:00pm SW 13 24 - - - - - - - 15.2 - 0.0
27/11:30am SW 13 23 - - - - - - - 14.9 - 0.0
27/11:00am SW 13 21 - - - - - - - 14.9 - 0.0
27/10:30am SW 12 19 - - - - - - - 15.3 - 0.0
27/10:00am WSW 11 21 - - - - - - - 14.9 - 0.0
27/09:30am SW 12 20 - - - - - - - 14.4 - 0.0
27/09:00am WSW 11 20 - - - - - - - 13.9 - 0.0
27/08:30am WNW 8 11 - - - - - - - 12.6 - 0.0
27/08:00am WNW 7 8 - - - - - - - 11.4 - 0.0
27/07:30am WNW 7 7 - - - - - - - 10.2 - 0.0
27/07:00am WNW 6 7 - - - - - - - 9.6 - 0.0
27/06:30am WNW 7 9 - - - - - - - 9.7 - 0.0
27/06:00am WNW 6 7 - - - - - - - 10.2 - 0.0
27/05:30am WNW 6 8 - - - - - - - 10.7 - 0.0
27/05:00am NW 7 9 - - - - - - - 11.1 - 0.0
27/04:30am NW 6 7 - - - - - - - 11.7 - 0.0
27/04:00am NW 6 7 - - - - - - - 11.9 - 0.0
27/03:30am NW 5 6 - - - - - - - 12.0 - 0.0
27/03:00am NW 5 7 - - - - - - - 12.4 - 0.0
27/02:30am NW 4 5 - - - - - - - 12.7 - 0.0
27/02:00am W 5 6 - - - - - - - 12.5 - 0.0
27/01:30am NW 6 7 - - - - - - - 12.9 - 0.0
27/01:00am WNW 2 3 - - - - - - - 12.8 - 0.0
27/12:30am NW 6 7 - - - - - - - 13.2 - 0.0
27/12:00am WNW 7 8 - - - - - - - 13.6 - 0.0
 
Date/Time
EST
Wind Sea
Height
m
Swell Vis
km
Cloud Weather Temp
°C
Press
MSL
hPa
Rain since
9am
mm
Dir  Spd
kts
Gust
kts
Height
m
Period
s
Dir
26/11:30pm W 7 8 - - - - - - - 13.8 - 0.0
26/11:00pm NW 5 9 - - - - - - - 13.7 - 0.0
26/10:30pm WNW 6 7 - - - - - - - 13.7 - 0.0
26/10:00pm W 7 10 - - - - - - - 13.5 - 0.0
26/09:30pm NW 4 5 - - - - - - - 14.1 - 0.0
26/09:00pm NW 4 5 - - - - - - - 14.3 - 0.0
26/08:30pm NW 4 5 - - - - - - - 15.2 - 0.0
26/08:00pm WNW 4 5 - - - - - - - 15.7 - 0.0
26/07:30pm NNW 4 5 - - - - - - - 16.0 - 0.0
26/07:00pm NNW 5 6 - - - - - - - 16.3 - 0.0
26/06:30pm NNW 4 5 - - - - - - - 16.5 - 0.0
26/06:00pm NNW 3 4 - - - - - - - 16.8 - 0.0
26/05:30pm NW 5 6 - - - - - - - 17.3 - 0.0
26/05:00pm NW 6 7 - - - - - - - 17.7 - 0.0
26/04:30pm NW 6 8 - - - - - - - 18.4 - 0.0
26/04:00pm NW 9 12 - - - - - - - 19.1 - 0.0
26/03:30pm WNW 10 13 - - - - - - - 20.0 - 0.0
26/03:00pm NW 8 11 - - - - - - - 20.1 - 0.0
26/02:30pm NW 10 13 - - - - - - - 20.3 - 0.0
26/02:00pm NW 9 11 - - - - - - - 19.9 - 0.0
26/01:30pm NW 10 13 - - - - - - - 19.6 - 0.0
26/01:00pm NW 9 12 - - - - - - - 19.5 - 0.0
26/12:30pm NW 11 14 - - - - - - - 18.8 - 0.0
26/12:00pm NW 8 11 - - - - - - - 18.4 - 0.0
26/11:30am NW 10 13 - - - - - - - 17.6 - 0.0
26/11:00am NW 11 14 - - - - - - - 16.4 - 0.0
26/10:30am NW 11 15 - - - - - - - 15.9 - 0.0
26/10:00am NW 12 15 - - - - - - - 15.0 - 0.0
26/09:30am NW 10 13 - - - - - - - 14.8 - 0.0
26/09:00am NW 9 11 - - - - - - - 13.5 - 0.0
26/08:30am NW 9 12 - - - - - - - 12.6 - 0.0
26/08:00am WNW 10 12 - - - - - - - 11.1 - 0.0
26/07:30am NW 9 11 - - - - - - - 10.9 - 0.0
26/07:00am WNW 8 10 - - - - - - - 10.9 - 0.0
26/06:30am NW 9 11 - - - - - - - 10.6 - 0.0
26/06:00am WNW 8 9 - - - - - - - 10.6 - 0.0
26/05:30am WNW 8 9 - - - - - - - 10.7 - 0.0
26/05:00am WNW 8 9 - - - - - - - 10.7 - 0.0
26/04:30am NW 8 10 - - - - - - - 11.0 - 0.0
26/04:00am WNW 8 9 - - - - - - - 11.1 - 0.0
26/03:30am NW 8 10 - - - - - - - 11.1 - 0.0
26/03:00am WNW 7 9 - - - - - - - 11.7 - 0.0
26/02:30am NW 9 11 - - - - - - - 11.8 - 0.0
26/02:00am NW 8 10 - - - - - - - 12.2 - 0.0
26/01:30am WNW 8 9 - - - - - - - 12.2 - 0.0
26/01:00am WNW 7 9 - - - - - - - 12.1 - 0.0
26/12:30am WNW 7 9 - - - - - - - 11.9 - 0.0
26/12:00am WNW 6 7 - - - - - - - 12.4 - 0.0
 
Date/Time
EST
Wind Sea
Height
m
Swell Vis
km
Cloud Weather Temp
°C
Press
MSL
hPa
Rain since
9am
mm
Dir  Spd
kts
Gust
kts
Height
m
Period
s
Dir
25/11:30pm NW 6 8 - - - - - - - 12.5 - 0.0
25/11:00pm NW 6 7 - - - - - - - 13.1 - 0.0
25/10:30pm NW 7 9 - - - - - - - 13.7 - 0.0
25/10:00pm NW 6 7 - - - - - - - 13.8 - 0.0
25/09:30pm NW 8 9 - - - - - - - 14.7 - 0.0
25/09:00pm NW 6 8 - - - - - - - 14.8 - 0.0
25/08:30pm WNW 4 7 - - - - - - - 15.1 - 0.0
25/08:00pm WNW 5 7 - - - - - - - 15.3 - 0.0
25/07:30pm WNW 5 7 - - - - - - - 15.8 - 0.0
25/07:00pm WNW 5 7 - - - - - - - 16.5 - 0.0
25/06:30pm NW 4 6 - - - - - - - 16.7 - 0.0
25/06:00pm WNW 6 7 - - - - - - - 17.1 - 0.0
25/05:30pm NW 5 7 - - - - - - - 17.5 - 0.0
25/05:00pm NW 6 8 - - - - - - - 18.1 - 0.0
25/04:30pm WNW 10 14 - - - - - - - 19.1 - 0.0
25/04:00pm WNW 12 16 - - - - - - - 19.6 - 0.0
25/03:30pm WNW 12 16 - - - - - - - 19.8 - 0.0
25/03:00pm WNW 13 17 - - - - - - - 19.8 - 0.0
25/02:30pm WNW 15 20 - - - - - - - 19.6 - 0.0
25/02:00pm WNW 14 20 - - - - - - - 19.6 - 0.0
25/01:30pm WNW 14 18 - - - - - - - 19.5 - 0.0
25/01:00pm WNW 13 20 - - - - - - - 19.4 - 0.0
25/12:30pm WNW 14 19 - - - - - - - 18.6 - 0.0
25/12:00pm NW 16 20 - - - - - - - 18.1 - 0.0
25/11:30am NW 17 21 - - - - - - - 17.4 - 0.0
25/11:00am NW 17 23 - - - - - - - 17.1 - 0.0
25/10:30am WNW 16 21 - - - - - - - 16.6 - 0.0
25/10:00am WNW 16 21 - - - - - - - 16.2 - 0.0
25/09:30am WNW 12 18 - - - - - - - 15.7 - 0.0
25/09:00am WNW 9 13 - - - - - - - 15.1 - 0.0
25/08:30am WNW 5 7 - - - - - - - 14.4 - 0.0
25/08:00am WSW 1 2 - - - - - - - 13.4 - 0.0
25/07:30am WNW 3 7 - - - - - - - 12.6 - 0.0
25/07:00am WNW 6 7 - - - - - - - 12.5 - 0.0
25/06:30am WNW 6 8 - - - - - - - 12.2 - 0.0
25/06:00am NW 5 8 - - - - - - - 12.2 - 0.0
25/05:30am WNW 8 11 - - - - - - - 12.4 - 0.0
25/05:00am WNW 6 11 - - - - - - - 12.4 - 0.0

Other formats

Comma delimited format used in spreadsheet applications
http://www.bom.gov.au/fwo/IDN60701/IDN60701.94774.axf

JavaScript Object Notation format (JSON) in row-major order
http://www.bom.gov.au/fwo/IDN60701/IDN60701.94774.json

Data quality

Most of these data are generated automatically and are frequently updated. Quality checks on data are not normally performed. It is possible for incorrect values to appear. Refer to information at About Latest Weather Observations and please check the disclaimer before using these data.